sensor_id;sensor_type;location;lat;lon;timestamp;pressure;altitude;pressure_sealevel;temperature;humidity
39265;BME280;42646;51.910;7.724;2023-04-06T00:02:12;101249.47;;;0.51;84.21
39265;BME280;42646;51.910;7.724;2023-04-06T00:04:39;101252.25;;;0.48;84.56
39265;BME280;42646;51.910;7.724;2023-04-06T00:07:08;101251.56;;;0.43;84.71
39265;BME280;42646;51.910;7.724;2023-04-06T00:09:35;101258.59;;;0.41;84.34
39265;BME280;42646;51.910;7.724;2023-04-06T00:12:03;101254.41;;;0.37;83.31
39265;BME280;42646;51.910;7.724;2023-04-06T00:14:32;101250.19;;;0.33;83.09
39265;BME280;42646;51.910;7.724;2023-04-06T00:17:01;101250.19;;;0.33;83.16
39265;BME280;42646;51.910;7.724;2023-04-06T00:19:29;101251.13;;;0.32;83.91
39265;BME280;42646;51.910;7.724;2023-04-06T00:21:56;101250.25;;;0.31;85.11
39265;BME280;42646;51.910;7.724;2023-04-06T00:24:24;101250.38;;;0.28;85.77
39265;BME280;42646;51.910;7.724;2023-04-06T00:26:52;101242.66;;;0.25;85.56
39265;BME280;42646;51.910;7.724;2023-04-06T00:29:20;101234.91;;;0.22;85.61
39265;BME280;42646;51.910;7.724;2023-04-06T00:31:48;101237.66;;;0.19;85.20
39265;BME280;42646;51.910;7.724;2023-04-06T00:34:17;101231.59;;;0.17;85.42
39265;BME280;42646;51.910;7.724;2023-04-06T00:36:44;101232.50;;;0.16;86.32
39265;BME280;42646;51.910;7.724;2023-04-06T00:39:12;101233.44;;;0.15;86.70
39265;BME280;42646;51.910;7.724;2023-04-06T00:41:46;101229.03;;;0.15;87.58
39265;BME280;42646;51.910;7.724;2023-04-06T00:44:17;101225.69;;;0.12;87.95
39265;BME280;42646;51.910;7.724;2023-04-06T00:47:10;101225.81;;;0.09;88.00
39265;BME280;42646;51.910;7.724;2023-04-06T00:49:46;101224.19;;;0.06;87.88
39265;BME280;42646;51.910;7.724;2023-04-06T00:52:14;101223.38;;;0.04;87.94
39265;BME280;42646;51.910;7.724;2023-04-06T00:54:45;101213.88;;;0.02;87.78
39265;BME280;42646;51.910;7.724;2023-04-06T00:57:14;101211.34;;;0.00;88.11
39265;BME280;42646;51.910;7.724;2023-04-06T00:59:45;101213.19;;;-0.04;87.58
39265;BME280;42646;51.910;7.724;2023-04-06T01:02:13;101209.84;;;-0.07;86.89
39265;BME280;42646;51.910;7.724;2023-04-06T01:04:47;101209.91;;;-0.09;86.60
39265;BME280;42646;51.910;7.724;2023-04-06T01:07:23;101202.19;;;-0.12;86.76
39265;BME280;42646;51.910;7.724;2023-04-06T01:10:03;101201.38;;;-0.14;86.45
39265;BME280;42646;51.910;7.724;2023-04-06T01:12:34;101199.72;;;-0.16;86.39
39265;BME280;42646;51.910;7.724;2023-04-06T01:15:06;101200.66;;;-0.17;86.91
39265;BME280;42646;51.910;7.724;2023-04-06T01:17:37;101195.41;;;-0.17;87.40
39265;BME280;42646;51.910;7.724;2023-04-06T01:20:12;101190.19;;;-0.17;88.31
39265;BME280;42646;51.910;7.724;2023-04-06T01:22:41;101191.91;;;-0.18;88.81
39265;BME280;42646;51.910;7.724;2023-04-06T01:25:11;101195.41;;;-0.17;89.13
39265;BME280;42646;51.910;7.724;2023-04-06T01:27:47;101188.47;;;-0.18;89.59
39265;BME280;42646;51.910;7.724;2023-04-06T01:30:22;101187.72;;;-0.22;89.46
39265;BME280;42646;51.910;7.724;2023-04-06T01:32:54;101185.97;;;-0.21;89.56
39265;BME280;42646;51.910;7.724;2023-04-06T01:35:36;101180.84;;;-0.24;89.53
39265;BME280;42646;51.910;7.724;2023-04-06T01:38:17;101181.75;;;-0.25;89.85
39265;BME280;42646;51.910;7.724;2023-04-06T01:41:35;101175.81;;;-0.29;89.56
39265;BME280;42646;51.910;7.724;2023-04-06T01:44:04;101171.53;;;-0.32;89.53
39265;BME280;42646;51.910;7.724;2023-04-06T01:46:32;101169.88;;;-0.34;89.35
39265;BME280;42646;51.910;7.724;2023-04-06T01:49:02;101165.56;;;-0.35;89.09
39265;BME280;42646;51.910;7.724;2023-04-06T01:51:38;101163.00;;;-0.37;88.85
39265;BME280;42646;51.910;7.724;2023-04-06T01:54:11;101168.34;;;-0.40;88.70
39265;BME280;42646;51.910;7.724;2023-04-06T01:56:55;101168.34;;;-0.40;88.90
39265;BME280;42646;51.910;7.724;2023-04-06T01:59:29;101163.97;;;-0.39;89.68
39265;BME280;42646;51.910;7.724;2023-04-06T02:01:59;101163.06;;;-0.38;90.29
39265;BME280;42646;51.910;7.724;2023-04-06T02:04:29;101170.06;;;-0.39;90.36
39265;BME280;42646;51.910;7.724;2023-04-06T02:07:07;101169.25;;;-0.41;90.27
39265;BME280;42646;51.910;7.724;2023-04-06T02:09:38;101159.75;;;-0.43;89.87
39265;BME280;42646;51.910;7.724;2023-04-06T02:12:11;101164.19;;;-0.45;89.11
39265;BME280;42646;51.910;7.724;2023-04-06T02:14:40;101161.66;;;-0.47;88.59
39265;BME280;42646;51.910;7.724;2023-04-06T02:17:08;101169.50;;;-0.47;88.63
39265;BME280;42646;51.910;7.724;2023-04-06T02:19:37;101159.88;;;-0.46;89.55
39265;BME280;42646;51.910;7.724;2023-04-06T02:22:04;101158.13;;;-0.46;90.15
39265;BME280;42646;51.910;7.724;2023-04-06T02:24:32;101155.50;;;-0.46;90.48
39265;BME280;42646;51.910;7.724;2023-04-06T02:27:05;101165.97;;;-0.46;90.68
39265;BME280;42646;51.910;7.724;2023-04-06T02:29:33;101159.91;;;-0.48;90.50
39265;BME280;42646;51.910;7.724;2023-04-06T02:32:01;101165.22;;;-0.49;90.32
39265;BME280;42646;51.910;7.724;2023-04-06T02:34:32;101165.34;;;-0.52;90.00
39265;BME280;42646;51.910;7.724;2023-04-06T02:36:59;101162.75;;;-0.54;89.94
39265;BME280;42646;51.910;7.724;2023-04-06T02:39:29;101156.69;;;-0.55;90.13
39265;BME280;42646;51.910;7.724;2023-04-06T02:41:57;101157.53;;;-0.54;90.04
39265;BME280;42646;51.910;7.724;2023-04-06T02:44:26;101156.75;;;-0.56;90.10
39265;BME280;42646;51.910;7.724;2023-04-06T02:46:54;101161.19;;;-0.58;89.92
39265;BME280;42646;51.910;7.724;2023-04-06T02:49:24;101155.13;;;-0.60;89.33
39265;BME280;42646;51.910;7.724;2023-04-06T02:51:55;101156.06;;;-0.61;89.26
39265;BME280;42646;51.910;7.724;2023-04-06T02:54:28;101156.09;;;-0.63;89.20
39265;BME280;42646;51.910;7.724;2023-04-06T02:56:56;101151.81;;;-0.64;89.70
39265;BME280;42646;51.910;7.724;2023-04-06T02:59:33;101141.41;;;-0.65;89.80
39265;BME280;42646;51.910;7.724;2023-04-06T03:02:08;101150.97;;;-0.66;90.21
39265;BME280;42646;51.910;7.724;2023-04-06T03:04:36;101154.47;;;-0.65;90.48
39265;BME280;42646;51.910;7.724;2023-04-06T03:07:11;101152.72;;;-0.65;90.77
39265;BME280;42646;51.910;7.724;2023-04-06T03:09:39;101146.63;;;-0.65;91.06
39265;BME280;42646;51.910;7.724;2023-04-06T03:12:07;101146.72;;;-0.68;91.18
39265;BME280;42646;51.910;7.724;2023-04-06T03:14:54;101141.59;;;-0.71;91.23
39265;BME280;42646;51.910;7.724;2023-04-06T03:17:22;101152.06;;;-0.71;90.69
39265;BME280;42646;51.910;7.724;2023-04-06T03:19:49;101146.88;;;-0.73;90.63
39265;BME280;42646;51.910;7.724;2023-04-06T03:22:19;101148.66;;;-0.73;90.66
39265;BME280;42646;51.910;7.724;2023-04-06T03:24:47;101150.34;;;-0.72;91.16
39265;BME280;42646;51.910;7.724;2023-04-06T03:27:15;101153.03;;;-0.74;91.18
39265;BME280;42646;51.910;7.724;2023-04-06T03:29:45;101152.22;;;-0.76;91.06
39265;BME280;42646;51.910;7.724;2023-04-06T03:32:20;101150.56;;;-0.78;91.12
39265;BME280;42646;51.910;7.724;2023-04-06T03:34:48;101154.09;;;-0.79;91.38
39265;BME280;42646;51.910;7.724;2023-04-06T03:37:15;101160.16;;;-0.79;91.35
39265;BME280;42646;51.910;7.724;2023-04-06T03:39:51;101155.00;;;-0.81;91.85
39265;BME280;42646;51.910;7.724;2023-04-06T03:42:23;101155.06;;;-0.82;91.92
39265;BME280;42646;51.910;7.724;2023-04-06T03:44:59;101142.03;;;-0.84;91.77
39265;BME280;42646;51.910;7.724;2023-04-06T03:47:28;101145.56;;;-0.85;91.72
39265;BME280;42646;51.910;7.724;2023-04-06T03:50:01;101149.09;;;-0.86;91.72
39265;BME280;42646;51.910;7.724;2023-04-06T03:52:32;101150.91;;;-0.88;91.59
39265;BME280;42646;51.910;7.724;2023-04-06T03:55:05;101150.94;;;-0.89;91.75
39265;BME280;42646;51.910;7.724;2023-04-06T03:57:35;101152.69;;;-0.90;91.67
39265;BME280;42646;51.910;7.724;2023-04-06T04:00:04;101155.44;;;-0.93;91.74
39265;BME280;42646;51.910;7.724;2023-04-06T04:02:39;101147.69;;;-0.96;91.69
39265;BME280;42646;51.910;7.724;2023-04-06T04:05:07;101147.75;;;-0.97;91.89
39265;BME280;42646;51.910;7.724;2023-04-06T04:07:36;101160.88;;;-0.99;92.09
39265;BME280;42646;51.910;7.724;2023-04-06T04:10:06;101152.28;;;-1.02;92.70
39265;BME280;42646;51.910;7.724;2023-04-06T04:12:34;101157.56;;;-1.04;92.54
39265;BME280;42646;51.910;7.724;2023-04-06T04:15:03;101148.88;;;-1.04;92.65
39265;BME280;42646;51.910;7.724;2023-04-06T04:17:31;101146.31;;;-1.06;92.27
39265;BME280;42646;51.910;7.724;2023-04-06T04:20:00;101160.22;;;-1.05;92.28
39265;BME280;42646;51.910;7.724;2023-04-06T04:22:28;101153.34;;;-1.08;92.22
39265;BME280;42646;51.910;7.724;2023-04-06T04:24:56;101152.53;;;-1.10;91.81
39265;BME280;42646;51.910;7.724;2023-04-06T04:27:24;101151.78;;;-1.14;91.74
39265;BME280;42646;51.910;7.724;2023-04-06T04:29:53;101154.44;;;-1.15;91.70
39265;BME280;42646;51.910;7.724;2023-04-06T04:32:22;101154.56;;;-1.18;91.38
39265;BME280;42646;51.910;7.724;2023-04-06T04:34:55;101152.81;;;-1.18;91.37
39265;BME280;42646;51.910;7.724;2023-04-06T04:37:34;101153.75;;;-1.20;91.39
39265;BME280;42646;51.910;7.724;2023-04-06T04:40:04;101155.50;;;-1.21;91.20
39265;BME280;42646;51.910;7.724;2023-04-06T04:42:43;101146.94;;;-1.24;91.23
39265;BME280;42646;51.910;7.724;2023-04-06T04:45:19;101148.72;;;-1.26;91.11
39265;BME280;42646;51.910;7.724;2023-04-06T04:47:47;101143.63;;;-1.29;90.99
39265;BME280;42646;51.910;7.724;2023-04-06T04:50:16;101142.78;;;-1.30;90.80
39265;BME280;42646;51.910;7.724;2023-04-06T04:52:49;101149.84;;;-1.33;90.73
39265;BME280;42646;51.910;7.724;2023-04-06T04:55:21;101143.78;;;-1.34;91.08
39265;BME280;42646;51.910;7.724;2023-04-06T04:57:54;101147.31;;;-1.37;90.87
39265;BME280;42646;51.910;7.724;2023-04-06T05:00:30;101150.00;;;-1.38;91.24
39265;BME280;42646;51.910;7.724;2023-04-06T05:03:00;101145.69;;;-1.39;91.25
39265;BME280;42646;51.910;7.724;2023-04-06T05:05:30;101149.25;;;-1.42;91.26
39265;BME280;42646;51.910;7.724;2023-04-06T05:08:00;101147.59;;;-1.44;91.00
39265;BME280;42646;51.910;7.724;2023-04-06T05:10:40;101149.34;;;-1.45;91.25
39265;BME280;42646;51.910;7.724;2023-04-06T05:13:11;101144.19;;;-1.46;91.12
39265;BME280;42646;51.910;7.724;2023-04-06T05:15:38;101148.56;;;-1.48;91.10
39265;BME280;42646;51.910;7.724;2023-04-06T05:18:19;101151.25;;;-1.50;91.49
39265;BME280;42646;51.910;7.724;2023-04-06T05:20:47;101152.16;;;-1.51;91.39
39265;BME280;42646;51.910;7.724;2023-04-06T05:23:17;101149.53;;;-1.51;91.47
39265;BME280;42646;51.910;7.724;2023-04-06T05:25:46;101156.53;;;-1.51;91.91
39265;BME280;42646;51.910;7.724;2023-04-06T05:28:18;101153.06;;;-1.52;92.20
39265;BME280;42646;51.910;7.724;2023-04-06T05:30:47;101147.84;;;-1.52;92.58
39265;BME280;42646;51.910;7.724;2023-04-06T05:33:15;101149.47;;;-1.49;92.41
39265;BME280;42646;51.910;7.724;2023-04-06T05:35:58;101139.91;;;-1.49;92.81
39265;BME280;42646;51.910;7.724;2023-04-06T05:38:29;101136.41;;;-1.48;92.90
39265;BME280;42646;51.910;7.724;2023-04-06T05:41:04;101141.63;;;-1.48;92.93
39265;BME280;42646;51.910;7.724;2023-04-06T05:43:33;101132.91;;;-1.48;93.15
39265;BME280;42646;51.910;7.724;2023-04-06T05:46:04;101134.66;;;-1.47;93.40
39265;BME280;42646;51.910;7.724;2023-04-06T05:48:32;101141.50;;;-1.45;93.58
39265;BME280;42646;51.910;7.724;2023-04-06T05:51:01;101145.75;;;-1.41;93.60
39265;BME280;42646;51.910;7.724;2023-04-06T05:53:42;101138.66;;;-1.37;93.84
39265;BME280;42646;51.910;7.724;2023-04-06T05:56:10;101145.47;;;-1.33;94.19
39265;BME280;42646;51.910;7.724;2023-04-06T05:59:02;101145.41;;;-1.30;94.52
39265;BME280;42646;51.910;7.724;2023-04-06T06:01:31;101139.16;;;-1.26;94.88
39265;BME280;42646;51.910;7.724;2023-04-06T06:04:00;101141.66;;;-1.23;94.89
39265;BME280;42646;51.910;7.724;2023-04-06T06:06:31;101139.75;;;-1.18;95.12
39265;BME280;42646;51.910;7.724;2023-04-06T06:09:09;101143.91;;;-1.12;95.23
39265;BME280;42646;51.910;7.724;2023-04-06T06:11:43;101140.34;;;-1.10;95.11
39265;BME280;42646;51.910;7.724;2023-04-06T06:14:17;101144.59;;;-1.07;95.10
39265;BME280;42646;51.910;7.724;2023-04-06T06:16:49;101139.22;;;-1.02;95.08
39265;BME280;42646;51.910;7.724;2023-04-06T06:19:18;101139.13;;;-0.99;94.97
39265;BME280;42646;51.910;7.724;2023-04-06T06:21:48;101145.03;;;-0.94;95.32
39265;BME280;42646;51.910;7.724;2023-04-06T06:24:17;101144.00;;;-0.90;95.16
39265;BME280;42646;51.910;7.724;2023-04-06T06:26:45;101149.09;;;-0.86;95.35
39265;BME280;42646;51.910;7.724;2023-04-06T06:29:18;101140.88;;;-0.75;95.95
39265;BME280;42646;51.910;7.724;2023-04-06T06:31:45;101140.31;;;-0.60;96.16
39265;BME280;42646;51.910;7.724;2023-04-06T06:34:13;101139.75;;;-0.44;98.07
39265;BME280;42646;51.910;7.724;2023-04-06T06:36:44;101133.75;;;-0.23;99.12
39265;BME280;42646;51.910;7.724;2023-04-06T06:39:18;101131.97;;;0.01;100.00
39265;BME280;42646;51.910;7.724;2023-04-06T06:41:49;101132.78;;;0.23;99.64
39265;BME280;42646;51.910;7.724;2023-04-06T06:44:21;101138.09;;;0.44;98.97
39265;BME280;42646;51.910;7.724;2023-04-06T06:46:50;101136.34;;;0.65;97.76
39265;BME280;42646;51.910;7.724;2023-04-06T06:49:19;101133.78;;;0.85;96.12
39265;BME280;42646;51.910;7.724;2023-04-06T06:51:47;101126.97;;;1.01;94.19
39265;BME280;42646;51.910;7.724;2023-04-06T06:54:17;101123.47;;;1.21;93.14
39265;BME280;42646;51.910;7.724;2023-04-06T06:56:46;101130.69;;;1.37;92.05
39265;BME280;42646;51.910;7.724;2023-04-06T06:59:17;101133.31;;;1.55;90.64
39265;BME280;42646;51.910;7.724;2023-04-06T07:01:45;101121.00;;;1.76;88.60
39265;BME280;42646;51.910;7.724;2023-04-06T07:04:13;101124.47;;;1.96;87.53
39265;BME280;42646;51.910;7.724;2023-04-06T07:06:41;101125.44;;;2.12;86.55
39265;BME280;42646;51.910;7.724;2023-04-06T07:09:09;101126.53;;;2.25;85.80
39265;BME280;42646;51.910;7.724;2023-04-06T07:11:38;101122.25;;;2.41;84.29
39265;BME280;42646;51.910;7.724;2023-04-06T07:14:06;101121.75;;;2.52;83.27
39265;BME280;42646;51.910;7.724;2023-04-06T07:16:34;101124.78;;;2.62;82.74
39265;BME280;42646;51.910;7.724;2023-04-06T07:19:02;101117.25;;;2.72;82.22
39265;BME280;42646;51.910;7.724;2023-04-06T07:21:30;101120.22;;;2.83;81.54
39265;BME280;42646;51.910;7.724;2023-04-06T07:23:57;101117.97;;;2.92;81.29
39265;BME280;42646;51.910;7.724;2023-04-06T07:26:25;101112.84;;;3.07;81.50
39265;BME280;42646;51.910;7.724;2023-04-06T07:28:54;101110.09;;;3.26;81.21
39265;BME280;42646;51.910;7.724;2023-04-06T07:31:49;101108.22;;;3.61;79.65
39265;BME280;42646;51.910;7.724;2023-04-06T07:34:23;101108.09;;;3.95;78.81
39265;BME280;42646;51.910;7.724;2023-04-06T07:37:15;101104.78;;;4.23;79.57
39265;BME280;42646;51.910;7.724;2023-04-06T07:39:44;101102.44;;;4.49;79.56
39265;BME280;42646;51.910;7.724;2023-04-06T07:42:13;101101.50;;;4.80;78.92
39265;BME280;42646;51.910;7.724;2023-04-06T07:44:48;101098.84;;;5.10;75.05
39265;BME280;42646;51.910;7.724;2023-04-06T07:47:17;101098.38;;;5.32;75.15
39265;BME280;42646;51.910;7.724;2023-04-06T07:49:44;101095.91;;;5.72;68.91
39265;BME280;42646;51.910;7.724;2023-04-06T07:52:13;101097.47;;;6.03;66.65
39265;BME280;42646;51.910;7.724;2023-04-06T07:54:41;101104.16;;;6.08;67.12
39265;BME280;42646;51.910;7.724;2023-04-06T07:57:10;101097.13;;;6.22;66.86
39265;BME280;42646;51.910;7.724;2023-04-06T07:59:43;101100.34;;;6.66;64.78
39265;BME280;42646;51.910;7.724;2023-04-06T08:02:12;101102.72;;;6.84;62.00
39265;BME280;42646;51.910;7.724;2023-04-06T08:04:40;101098.19;;;7.11;60.96
39265;BME280;42646;51.910;7.724;2023-04-06T08:07:11;101100.00;;;7.36;58.90
39265;BME280;42646;51.910;7.724;2023-04-06T08:09:40;101096.81;;;7.44;59.57
39265;BME280;42646;51.910;7.724;2023-04-06T08:12:07;101101.34;;;7.55;59.26
39265;BME280;42646;51.910;7.724;2023-04-06T08:14:35;101089.78;;;7.68;60.07
39265;BME280;42646;51.910;7.724;2023-04-06T08:17:03;101088.53;;;7.98;59.59
39265;BME280;42646;51.910;7.724;2023-04-06T08:19:33;101097.28;;;8.11;58.79
39265;BME280;42646;51.910;7.724;2023-04-06T08:22:00;101087.78;;;8.33;57.79
39265;BME280;42646;51.910;7.724;2023-04-06T08:24:28;101093.50;;;8.39;60.01
39265;BME280;42646;51.910;7.724;2023-04-06T08:26:59;101096.84;;;8.54;59.99
39265;BME280;42646;51.910;7.724;2023-04-06T08:29:27;101089.84;;;8.64;59.70
39265;BME280;42646;51.910;7.724;2023-04-06T08:31:54;101095.19;;;8.75;59.62
39265;BME280;42646;51.910;7.724;2023-04-06T08:34:22;101093.09;;;8.92;58.65
39265;BME280;42646;51.910;7.724;2023-04-06T08:36:51;101089.50;;;9.04;57.59
39265;BME280;42646;51.910;7.724;2023-04-06T08:39:20;101081.56;;;9.38;53.87
39265;BME280;42646;51.910;7.724;2023-04-06T08:41:52;101091.94;;;9.41;54.59
39265;BME280;42646;51.910;7.724;2023-04-06T08:44:23;101084.25;;;9.49;53.59
39265;BME280;42646;51.910;7.724;2023-04-06T08:46:51;101083.38;;;9.59;53.49
39265;BME280;42646;51.910;7.724;2023-04-06T08:49:20;101079.50;;;9.63;53.40
39265;BME280;42646;51.910;7.724;2023-04-06T08:51:49;101077.69;;;9.64;55.07
39265;BME280;42646;51.910;7.724;2023-04-06T08:54:18;101080.22;;;9.88;54.72
39265;BME280;42646;51.910;7.724;2023-04-06T08:56:47;101079.56;;;10.07;52.82
39265;BME280;42646;51.910;7.724;2023-04-06T08:59:16;101071.22;;;10.11;52.32
39265;BME280;42646;51.910;7.724;2023-04-06T09:01:44;101074.81;;;10.22;51.70
39265;BME280;42646;51.910;7.724;2023-04-06T09:04:13;101071.94;;;10.25;52.76
39265;BME280;42646;51.910;7.724;2023-04-06T09:06:42;101075.41;;;10.25;53.74
39265;BME280;42646;51.910;7.724;2023-04-06T09:09:10;101084.69;;;10.42;53.27
39265;BME280;42646;51.910;7.724;2023-04-06T09:11:46;101077.13;;;10.58;49.42
39265;BME280;42646;51.910;7.724;2023-04-06T09:14:33;101077.53;;;10.42;51.71
39265;BME280;42646;51.910;7.724;2023-04-06T09:17:02;101078.81;;;10.59;52.63
39265;BME280;42646;51.910;7.724;2023-04-06T09:19:32;101076.22;;;10.69;51.05
39265;BME280;42646;51.910;7.724;2023-04-06T09:22:03;101075.34;;;10.80;50.98
39265;BME280;42646;51.910;7.724;2023-04-06T09:24:40;101060.38;;;10.88;49.23
39265;BME280;42646;51.910;7.724;2023-04-06T09:27:09;101067.22;;;10.81;48.27
39265;BME280;42646;51.910;7.724;2023-04-06T09:29:37;101063.72;;;10.81;49.62
39265;BME280;42646;51.910;7.724;2023-04-06T09:32:08;101063.56;;;10.82;49.92
39265;BME280;42646;51.910;7.724;2023-04-06T09:34:37;101063.88;;;11.10;50.31
39265;BME280;42646;51.910;7.724;2023-04-06T09:37:14;101050.44;;;11.11;47.99
39265;BME280;42646;51.910;7.724;2023-04-06T09:39:43;101049.91;;;11.17;48.70
39265;BME280;42646;51.910;7.724;2023-04-06T09:42:23;101041.00;;;11.38;48.39
39265;BME280;42646;51.910;7.724;2023-04-06T09:44:52;101047.91;;;11.40;47.78
39265;BME280;42646;51.910;7.724;2023-04-06T09:47:20;101040.38;;;11.45;48.30
39265;BME280;42646;51.910;7.724;2023-04-06T09:49:53;101036.56;;;11.48;48.13
39265;BME280;42646;51.910;7.724;2023-04-06T09:52:30;101040.97;;;11.59;45.74
39265;BME280;42646;51.910;7.724;2023-04-06T09:55:01;101040.28;;;11.66;45.94
39265;BME280;42646;51.910;7.724;2023-04-06T09:57:37;101042.94;;;11.57;46.47
39265;BME280;42646;51.910;7.724;2023-04-06T10:00:07;101044.47;;;11.59;48.17
39265;BME280;42646;51.910;7.724;2023-04-06T10:02:43;101039.63;;;11.74;49.04
39265;BME280;42646;51.910;7.724;2023-04-06T10:05:16;101032.97;;;11.99;46.92
39265;BME280;42646;51.910;7.724;2023-04-06T10:07:49;101033.94;;;11.98;46.40
39265;BME280;42646;51.910;7.724;2023-04-06T10:10:27;101034.25;;;12.05;45.76
39265;BME280;42646;51.910;7.724;2023-04-06T10:12:56;101025.25;;;12.06;46.71
39265;BME280;42646;51.910;7.724;2023-04-06T10:15:50;101026.94;;;12.16;47.64
39265;BME280;42646;51.910;7.724;2023-04-06T10:18:19;101022.72;;;12.33;47.01
39265;BME280;42646;51.910;7.724;2023-04-06T10:20:50;101029.75;;;12.53;42.70
39265;BME280;42646;51.910;7.724;2023-04-06T10:23:19;101029.63;;;12.36;43.95
39265;BME280;42646;51.910;7.724;2023-04-06T10:25:54;101023.56;;;12.43;45.75
39265;BME280;42646;51.910;7.724;2023-04-06T10:28:26;101030.84;;;12.61;42.45
39265;BME280;42646;51.910;7.724;2023-04-06T10:30:58;101019.50;;;12.49;44.12
39265;BME280;42646;51.910;7.724;2023-04-06T10:33:55;101020.47;;;12.48;44.73
39265;BME280;42646;51.910;7.724;2023-04-06T10:36:24;101020.47;;;12.57;44.36
39265;BME280;42646;51.910;7.724;2023-04-06T10:38:57;101024.00;;;12.58;43.75
39265;BME280;42646;51.910;7.724;2023-04-06T10:41:32;101027.19;;;12.62;43.45
39265;BME280;42646;51.910;7.724;2023-04-06T10:44:02;101023.13;;;12.67;43.36
39265;BME280;42646;51.910;7.724;2023-04-06T10:46:30;101022.00;;;12.70;43.20
39265;BME280;42646;51.910;7.724;2023-04-06T10:49:09;101022.53;;;12.93;40.34
39265;BME280;42646;51.910;7.724;2023-04-06T10:51:39;101020.44;;;12.77;40.25
39265;BME280;42646;51.910;7.724;2023-04-06T10:54:06;101017.88;;;12.85;39.53
39265;BME280;42646;51.910;7.724;2023-04-06T10:56:36;101010.59;;;12.77;41.32
39265;BME280;42646;51.910;7.724;2023-04-06T10:59:06;101012.75;;;12.64;41.95
39265;BME280;42646;51.910;7.724;2023-04-06T11:01:35;101015.09;;;12.77;41.40
39265;BME280;42646;51.910;7.724;2023-04-06T11:04:03;101002.28;;;12.90;40.20
39265;BME280;42646;51.910;7.724;2023-04-06T11:06:31;100999.19;;;12.95;42.56
39265;BME280;42646;51.910;7.724;2023-04-06T11:08:58;101002.09;;;13.01;42.54
39265;BME280;42646;51.910;7.724;2023-04-06T11:11:27;100996.28;;;13.16;40.06
39265;BME280;42646;51.910;7.724;2023-04-06T11:14:21;100994.75;;;13.13;40.51
39265;BME280;42646;51.910;7.724;2023-04-06T11:16:50;101007.81;;;13.16;39.62
39265;BME280;42646;51.910;7.724;2023-04-06T11:19:20;100997.44;;;13.03;40.49
39265;BME280;42646;51.910;7.724;2023-04-06T11:22:13;100997.81;;;13.18;38.81
39265;BME280;42646;51.910;7.724;2023-04-06T11:24:41;100998.16;;;13.05;39.95
39265;BME280;42646;51.910;7.724;2023-04-06T11:27:09;100997.78;;;12.91;41.48
39265;BME280;42646;51.910;7.724;2023-04-06T11:29:38;100993.16;;;12.93;41.02
39265;BME280;42646;51.910;7.724;2023-04-06T11:32:07;100990.16;;;13.05;41.38
39265;BME280;42646;51.910;7.724;2023-04-06T11:34:36;100990.41;;;13.12;41.53
39265;BME280;42646;51.910;7.724;2023-04-06T11:37:07;100994.31;;;13.18;41.30
39265;BME280;42646;51.910;7.724;2023-04-06T11:39:38;100988.56;;;13.22;41.67
39265;BME280;42646;51.910;7.724;2023-04-06T11:42:06;100989.66;;;13.29;41.90
39265;BME280;42646;51.910;7.724;2023-04-06T11:44:36;100982.06;;;13.34;41.03
39265;BME280;42646;51.910;7.724;2023-04-06T11:47:08;100978.66;;;13.32;41.56
39265;BME280;42646;51.910;7.724;2023-04-06T11:49:38;100978.19;;;13.47;39.99
39265;BME280;42646;51.910;7.724;2023-04-06T11:52:14;100978.72;;;13.50;39.48
39265;BME280;42646;51.910;7.724;2023-04-06T11:54:42;100972.47;;;13.59;38.54
39265;BME280;42646;51.910;7.724;2023-04-06T11:57:12;100976.19;;;13.49;37.65
39265;BME280;42646;51.910;7.724;2023-04-06T11:59:39;100972.84;;;13.47;38.96
39265;BME280;42646;51.910;7.724;2023-04-06T12:02:08;100972.75;;;13.56;38.21
39265;BME280;42646;51.910;7.724;2023-04-06T12:04:37;100977.50;;;13.62;38.05
39265;BME280;42646;51.910;7.724;2023-04-06T12:07:05;100972.47;;;13.59;37.69
39265;BME280;42646;51.910;7.724;2023-04-06T12:09:33;100966.34;;;13.49;38.10
39265;BME280;42646;51.910;7.724;2023-04-06T12:12:02;100961.03;;;13.40;39.05
39265;BME280;42646;51.910;7.724;2023-04-06T12:14:30;100961.38;;;13.54;37.70
39265;BME280;42646;51.910;7.724;2023-04-06T12:16:59;100968.97;;;13.59;37.16
39265;BME280;42646;51.910;7.724;2023-04-06T12:19:28;100958.03;;;13.52;38.03
39265;BME280;42646;51.910;7.724;2023-04-06T12:22:03;100968.00;;;13.50;39.17
39265;BME280;42646;51.910;7.724;2023-04-06T12:24:31;100968.41;;;13.55;38.89
39265;BME280;42646;51.910;7.724;2023-04-06T12:26:58;100969.69;;;13.51;38.87
39265;BME280;42646;51.910;7.724;2023-04-06T12:29:36;100954.06;;;13.56;38.29
39265;BME280;42646;51.910;7.724;2023-04-06T12:32:03;100961.06;;;13.57;39.16
39265;BME280;42646;51.910;7.724;2023-04-06T12:34:33;100955.31;;;13.80;39.33
39265;BME280;42646;51.910;7.724;2023-04-06T12:37:01;100957.91;;;13.72;37.42
39265;BME280;42646;51.910;7.724;2023-04-06T12:39:29;100951.94;;;13.60;38.41
39265;BME280;42646;51.910;7.724;2023-04-06T12:41:57;100945.31;;;13.64;38.36
39265;BME280;42646;51.910;7.724;2023-04-06T12:44:27;100955.63;;;13.77;39.11
39265;BME280;42646;51.910;7.724;2023-04-06T12:46:54;100951.72;;;13.89;38.92
39265;BME280;42646;51.910;7.724;2023-04-06T12:49:23;100951.50;;;14.00;38.00
39265;BME280;42646;51.910;7.724;2023-04-06T12:51:53;100950.13;;;13.96;38.78
39265;BME280;42646;51.910;7.724;2023-04-06T12:54:21;100947.06;;;14.09;38.03
39265;BME280;42646;51.910;7.724;2023-04-06T12:56:49;100939.25;;;14.15;36.99
39265;BME280;42646;51.910;7.724;2023-04-06T12:59:16;100942.50;;;14.27;35.48
39265;BME280;42646;51.910;7.724;2023-04-06T13:01:44;100947.59;;;14.12;36.23
39265;BME280;42646;51.910;7.724;2023-04-06T13:04:12;100940.38;;;14.31;35.67
39265;BME280;42646;51.910;7.724;2023-04-06T13:06:39;100935.09;;;14.21;35.06
39265;BME280;42646;51.910;7.724;2023-04-06T13:09:09;100931.31;;;14.24;36.45
39265;BME280;42646;51.910;7.724;2023-04-06T13:11:39;100933.56;;;14.36;35.92
39265;BME280;42646;51.910;7.724;2023-04-06T13:14:07;100929.25;;;14.61;34.98